Time;durP1;ratioP1;P1;durP2;ratioP2;P2;SDS_P1;SDS_P2;PMS_P1;PMS_P2;Temp;Humidity;BMP_temperature;BMP_pressure;BME280_temperature;BME280_humidity;BME280_pressure;Samples;Min_cycle;Max_cycle;Signal;HPM_P1;HPM_P2
2023/09/21 00:00:12;;;;;;;3.35;1.40;;;;;;;;;;5089458;28;20546;-65
2023/09/21 00:02:41;;;;;;;3.03;1.38;;;;;;;;;;5079711;28;20491;-64
2023/09/21 00:05:11;;;;;;;3.58;1.40;;;;;;;;;;5086685;28;20047;-65
2023/09/21 00:07:38;;;;;;;2.65;1.20;;;;;;;;;;5068843;28;20420;-66
2023/09/21 00:10:07;;;;;;;5.63;1.50;;;;;;;;;;5090503;28;20047;-65
2023/09/21 00:12:35;;;;;;;2.15;1.30;;;;;;;;;;5084876;28;20583;-65
2023/09/21 00:15:06;;;;;;;5.00;1.27;;;;;;;;;;5089284;28;20557;-65
2023/09/21 00:17:34;;;;;;;4.13;1.40;;;;;;;;;;5083993;28;20126;-65
2023/09/21 00:20:12;;;;;;;4.45;1.50;;;;;;;;;;5080337;28;20059;-65
2023/09/21 00:22:42;;;;;;;3.08;1.33;;;;;;;;;;5071753;28;20101;-65
2023/09/21 00:25:10;;;;;;;2.53;1.15;;;;;;;;;;5088636;28;20063;-65
2023/09/21 00:27:39;;;;;;;4.95;1.70;;;;;;;;;;5074073;28;20055;-65
2023/09/21 00:30:07;;;;;;;4.10;1.50;;;;;;;;;;5086163;28;20044;-65
2023/09/21 00:32:39;;;;;;;4.47;1.40;;;;;;;;;;5087090;28;20051;-65
2023/09/21 00:35:09;;;;;;;3.40;1.60;;;;;;;;;;5086993;28;20533;-65
2023/09/21 00:37:36;;;;;;;4.28;1.38;;;;;;;;;;5086723;28;20318;-65
2023/09/21 00:40:13;;;;;;;4.00;1.20;;;;;;;;;;5068392;28;20048;-65
2023/09/21 00:42:40;;;;;;;5.65;1.42;;;;;;;;;;5086503;28;20047;-65
2023/09/21 00:45:09;;;;;;;3.80;1.42;;;;;;;;;;5089015;28;20117;-65
2023/09/21 00:47:39;;;;;;;5.22;1.35;;;;;;;;;;5088979;28;20109;-65
2023/09/21 00:50:09;;;;;;;4.35;1.33;;;;;;;;;;5086748;28;20043;-65
2023/09/21 00:52:36;;;;;;;6.05;1.30;;;;;;;;;;5088605;28;20090;-65
2023/09/21 00:55:05;;;;;;;2.75;1.17;;;;;;;;;;5086283;28;20044;-65
2023/09/21 00:57:33;;;;;;;2.40;1.30;;;;;;;;;;5082258;28;20079;-65
2023/09/21 01:00:01;;;;;;;2.40;1.40;;;;;;;;;;5088439;28;20457;-65
2023/09/21 01:02:28;;;;;;;4.15;1.38;;;;;;;;;;5089868;28;20047;-65
2023/09/21 01:04:56;;;;;;;3.47;1.25;;;;;;;;;;5087070;28;20075;-65
2023/09/21 01:07:26;;;;;;;3.17;1.40;;;;;;;;;;5088748;28;20044;-65
2023/09/21 01:09:53;;;;;;;4.20;1.30;;;;;;;;;;5089348;28;20086;-65
2023/09/21 01:12:22;;;;;;;6.07;1.48;;;;;;;;;;5087135;28;20403;-65
2023/09/21 01:15:09;;;;;;;2.13;1.27;;;;;;;;;;5086076;28;20044;-65
2023/09/21 01:17:39;;;;;;;4.65;1.20;;;;;;;;;;5085716;28;20479;-65
2023/09/21 01:20:22;;;;;;;3.13;1.58;;;;;;;;;;5093539;28;20052;-65
2023/09/21 01:22:55;;;;;;;4.65;1.40;;;;;;;;;;5086451;28;20056;-65
2023/09/21 01:25:27;;;;;;;5.43;1.33;;;;;;;;;;5086981;28;20067;-65
2023/09/21 01:27:54;;;;;;;2.83;1.40;;;;;;;;;;5090983;28;20923;-65
2023/09/21 01:30:22;;;;;;;2.13;1.30;;;;;;;;;;5093968;28;20483;-65
2023/09/21 01:32:49;;;;;;;3.08;1.50;;;;;;;;;;5090686;28;20544;-65
2023/09/21 01:35:17;;;;;;;5.53;1.25;;;;;;;;;;5078617;28;20531;-65
2023/09/21 01:37:45;;;;;;;2.83;1.58;;;;;;;;;;5092642;28;20129;-65
2023/09/21 01:40:16;;;;;;;2.72;1.15;;;;;;;;;;5088597;28;20080;-65
2023/09/21 01:42:48;;;;;;;4.13;1.20;;;;;;;;;;5084106;28;20542;-65
2023/09/21 01:45:16;;;;;;;3.22;1.33;;;;;;;;;;5082766;28;20046;-65
2023/09/21 01:47:43;;;;;;;2.40;1.38;;;;;;;;;;5088570;28;20082;-65
2023/09/21 01:50:12;;;;;;;2.20;1.27;;;;;;;;;;5092054;28;20051;-65
2023/09/21 01:52:39;;;;;;;2.20;1.30;;;;;;;;;;5070109;28;20063;-65
2023/09/21 01:55:10;;;;;;;5.32;1.20;;;;;;;;;;5086615;28;20066;-65
2023/09/21 01:57:37;;;;;;;4.38;1.25;;;;;;;;;;5086985;28;20117;-65
2023/09/21 02:00:12;;;;;;;2.92;1.02;;;;;;;;;;5092322;28;20048;-65
2023/09/21 02:02:39;;;;;;;4.28;1.48;;;;;;;;;;5087209;28;20055;-65
2023/09/21 02:05:11;;;;;;;2.97;1.30;;;;;;;;;;5092660;28;20066;-65
2023/09/21 02:07:39;;;;;;;3.35;1.30;;;;;;;;;;5086530;28;20044;-65
2023/09/21 02:10:09;;;;;;;4.95;1.30;;;;;;;;;;5068336;28;20109;-65
2023/09/21 02:12:37;;;;;;;3.05;1.23;;;;;;;;;;5090859;28;20086;-65
2023/09/21 02:15:06;;;;;;;5.35;1.55;;;;;;;;;;5092018;28;20040;-65
2023/09/21 02:17:34;;;;;;;1.70;1.10;;;;;;;;;;5074681;28;20044;-65
2023/09/21 02:20:03;;;;;;;3.15;1.13;;;;;;;;;;5087946;28;20048;-65
2023/09/21 02:22:31;;;;;;;3.78;1.33;;;;;;;;;;5089278;28;20051;-65
2023/09/21 02:24:58;;;;;;;3.35;1.50;;;;;;;;;;5084213;28;20730;-65
2023/09/21 02:27:27;;;;;;;2.95;1.50;;;;;;;;;;5087379;28;20541;-65
2023/09/21 02:29:55;;;;;;;2.45;1.08;;;;;;;;;;5089896;28;20062;-65
2023/09/21 02:32:22;;;;;;;6.22;1.48;;;;;;;;;;5090825;28;20040;-65
2023/09/21 02:34:52;;;;;;;1.90;1.30;;;;;;;;;;5090101;28;20052;-65
2023/09/21 02:37:20;;;;;;;3.55;1.50;;;;;;;;;;5090273;28;20127;-65
2023/09/21 02:39:48;;;;;;;3.38;1.50;;;;;;;;;;5087997;28;20055;-65
2023/09/21 02:42:15;;;;;;;4.80;1.50;;;;;;;;;;5090211;28;20064;-65
2023/09/21 02:44:45;;;;;;;2.88;1.30;;;;;;;;;;5085552;28;20064;-64
2023/09/21 02:47:13;;;;;;;3.15;1.10;;;;;;;;;;5086330;28;20074;-65
2023/09/21 02:49:40;;;;;;;2.75;1.20;;;;;;;;;;5087972;28;20052;-65
2023/09/21 02:52:08;;;;;;;1.70;1.23;;;;;;;;;;5084587;28;20052;-65
2023/09/21 02:54:35;;;;;;;2.95;1.17;;;;;;;;;;5089226;28;20052;-65
2023/09/21 02:57:05;;;;;;;3.25;1.27;;;;;;;;;;5079122;28;20403;-65
2023/09/21 02:59:32;;;;;;;4.32;1.20;;;;;;;;;;5089811;28;20052;-65
2023/09/21 03:02:00;;;;;;;4.25;1.35;;;;;;;;;;5089822;28;20048;-65
2023/09/21 03:04:27;;;;;;;1.85;1.10;;;;;;;;;;5073811;28;20047;-65
2023/09/21 03:06:55;;;;;;;3.35;1.60;;;;;;;;;;5089508;28;20544;-65
2023/09/21 03:09:24;;;;;;;3.20;1.33;;;;;;;;;;5089481;28;20048;-65
2023/09/21 03:11:51;;;;;;;4.03;1.27;;;;;;;;;;5090229;28;20510;-64
2023/09/21 03:14:18;;;;;;;2.70;1.25;;;;;;;;;;5093181;28;20059;-65
2023/09/21 03:16:47;;;;;;;3.22;1.50;;;;;;;;;;5072313;28;20060;-65
2023/09/21 03:19:16;;;;;;;2.30;1.35;;;;;;;;;;5087343;28;20119;-65
2023/09/21 03:21:43;;;;;;;2.97;1.45;;;;;;;;;;5084231;28;20045;-65
2023/09/21 03:24:11;;;;;;;2.00;1.10;;;;;;;;;;5083702;28;20445;-65
2023/09/21 03:26:40;;;;;;;3.42;1.30;;;;;;;;;;5088983;28;20036;-65
2023/09/21 03:29:10;;;;;;;2.35;1.05;;;;;;;;;;5091041;28;20062;-65
2023/09/21 03:31:37;;;;;;;2.45;1.20;;;;;;;;;;5087159;28;20052;-65
2023/09/21 03:34:05;;;;;;;2.50;1.30;;;;;;;;;;5090324;28;20074;-65
2023/09/21 03:36:35;;;;;;;2.17;1.15;;;;;;;;;;5088308;28;20048;-65
2023/09/21 03:39:09;;;;;;;2.13;1.30;;;;;;;;;;5070229;28;20051;-65
2023/09/21 03:41:36;;;;;;;4.30;1.60;;;;;;;;;;5090446;28;20052;-65
2023/09/21 03:44:06;;;;;;;2.67;1.20;;;;;;;;;;5086255;28;20055;-65
2023/09/21 03:46:34;;;;;;;5.15;1.20;;;;;;;;;;5089585;28;20070;-65
2023/09/21 03:49:01;;;;;;;3.35;1.30;;;;;;;;;;5088722;28;20475;-65
2023/09/21 03:51:29;;;;;;;2.45;1.30;;;;;;;;;;5088974;28;20048;-65
2023/09/21 03:53:57;;;;;;;3.28;1.40;;;;;;;;;;5083517;28;20115;-65
2023/09/21 03:56:26;;;;;;;3.17;1.30;;;;;;;;;;5064217;28;20056;-64
2023/09/21 03:58:55;;;;;;;2.72;1.10;;;;;;;;;;5080924;28;20110;-65
2023/09/21 04:01:23;;;;;;;2.40;1.13;;;;;;;;;;5087980;28;20044;-65
2023/09/21 04:03:53;;;;;;;2.03;1.30;;;;;;;;;;5089891;28;20406;-65
2023/09/21 04:06:20;;;;;;;1.92;1.30;;;;;;;;;;5084444;28;20075;-65
2023/09/21 04:08:48;;;;;;;3.80;1.30;;;;;;;;;;5087065;28;20044;-65
2023/09/21 04:11:15;;;;;;;3.90;1.45;;;;;;;;;;5088161;28;20044;-65
2023/09/21 04:13:42;;;;;;;5.90;1.50;;;;;;;;;;5090322;28;20070;-65
2023/09/21 04:16:09;;;;;;;4.78;1.25;;;;;;;;;;5086584;28;20044;-65
2023/09/21 04:18:38;;;;;;;4.00;1.42;;;;;;;;;;5082085;28;20044;-65
2023/09/21 04:21:09;;;;;;;4.40;1.50;;;;;;;;;;5079605;28;20476;-64
2023/09/21 04:23:36;;;;;;;2.05;1.48;;;;;;;;;;5088048;28;20071;-64
2023/09/21 04:26:03;;;;;;;2.60;1.55;;;;;;;;;;5088385;28;20044;-65
2023/09/21 04:28:30;;;;;;;2.20;1.38;;;;;;;;;;5091659;28;20475;-65
2023/09/21 04:31:01;;;;;;;3.97;1.50;;;;;;;;;;5087467;28;20044;-64
2023/09/21 04:33:28;;;;;;;5.00;1.40;;;;;;;;;;5082899;28;20084;-65
2023/09/21 04:35:57;;;;;;;2.03;1.20;;;;;;;;;;5079863;28;20484;-65
2023/09/21 04:38:24;;;;;;;1.55;1.00;;;;;;;;;;5073012;28;20060;-65
2023/09/21 04:40:52;;;;;;;2.65;1.10;;;;;;;;;;5080459;28;20131;-65
2023/09/21 04:43:20;;;;;;;4.07;1.23;;;;;;;;;;5080936;28;20131;-65
2023/09/21 04:45:49;;;;;;;3.63;0.90;;;;;;;;;;5084550;28;20052;-64
2023/09/21 04:48:16;;;;;;;4.28;1.30;;;;;;;;;;5075978;28;20571;-64
2023/09/21 04:50:48;;;;;;;2.42;1.60;;;;;;;;;;5073354;28;20056;-64
2023/09/21 04:53:17;;;;;;;2.47;1.35;;;;;;;;;;5089775;28;20522;-65
2023/09/21 04:55:44;;;;;;;3.67;1.60;;;;;;;;;;5078746;28;20044;-64
2023/09/21 04:58:11;;;;;;;2.20;1.50;;;;;;;;;;5084275;28;20072;-64
2023/09/21 05:00:39;;;;;;;5.78;1.83;;;;;;;;;;5086364;28;20400;-64
2023/09/21 05:03:06;;;;;;;2.92;1.60;;;;;;;;;;5088056;28;20075;-64
2023/09/21 05:05:33;;;;;;;3.47;1.77;;;;;;;;;;5085126;28;20123;-64
2023/09/21 05:08:03;;;;;;;3.63;1.85;;;;;;;;;;5098297;28;20048;-63
2023/09/21 05:10:32;;;;;;;4.65;1.75;;;;;;;;;;5093470;28;20105;-63
2023/09/21 05:12:59;;;;;;;2.22;1.50;;;;;;;;;;5092416;28;20407;-63
2023/09/21 05:15:26;;;;;;;4.95;1.60;;;;;;;;;;5084169;28;20123;-63
2023/09/21 05:17:54;;;;;;;3.45;1.55;;;;;;;;;;5071480;28;20423;-63
2023/09/21 05:20:21;;;;;;;4.38;1.60;;;;;;;;;;5090221;28;20043;-63
2023/09/21 05:22:48;;;;;;;7.10;1.63;;;;;;;;;;5090381;28;20044;-63
2023/09/21 05:25:15;;;;;;;2.40;1.73;;;;;;;;;;5085379;28;20051;-63
2023/09/21 05:27:44;;;;;;;4.28;1.90;;;;;;;;;;5085762;28;20047;-63
2023/09/21 05:30:14;;;;;;;3.97;1.63;;;;;;;;;;5079577;28;20056;-63
2023/09/21 05:32:41;;;;;;;3.67;1.50;;;;;;;;;;5087149;28;20140;-63
2023/09/21 05:35:10;;;;;;;2.83;1.77;;;;;;;;;;5091818;28;20499;-63
2023/09/21 05:37:36;;;;;;;6.35;1.88;;;;;;;;;;5083658;28;20162;-63
2023/09/21 05:40:05;;;;;;;6.80;1.60;;;;;;;;;;5085234;28;20485;-63
2023/09/21 05:42:32;;;;;;;4.28;2.03;;;;;;;;;;5090116;28;20048;-63
2023/09/21 05:45:01;;;;;;;3.85;1.90;;;;;;;;;;5092056;28;20051;-62
2023/09/21 05:47:28;;;;;;;6.65;2.10;;;;;;;;;;5089680;28;20045;-63
2023/09/21 05:49:55;;;;;;;3.55;1.80;;;;;;;;;;5087916;28;20039;-63
2023/09/21 05:52:24;;;;;;;3.17;1.88;;;;;;;;;;5090649;28;20407;-62
2023/09/21 05:54:51;;;;;;;5.18;2.10;;;;;;;;;;5088020;28;20056;-62
2023/09/21 05:57:19;;;;;;;4.78;2.20;;;;;;;;;;5080022;28;20504;-63
2023/09/21 05:59:46;;;;;;;4.40;2.17;;;;;;;;;;5090293;28;20070;-62
2023/09/21 06:02:15;;;;;;;4.35;2.10;;;;;;;;;;5066777;28;20087;-63
2023/09/21 06:04:42;;;;;;;4.38;2.17;;;;;;;;;;5068851;28;20055;-63
2023/09/21 06:07:10;;;;;;;4.43;2.13;;;;;;;;;;5088279;28;20044;-62
2023/09/21 06:09:37;;;;;;;4.68;1.85;;;;;;;;;;5072814;28;20056;-63
2023/09/21 06:12:05;;;;;;;2.40;1.98;;;;;;;;;;5086203;28;20059;-63
2023/09/21 06:14:33;;;;;;;7.45;2.03;;;;;;;;;;5088662;28;20066;-64
2023/09/21 06:17:00;;;;;;;4.32;2.25;;;;;;;;;;5079915;28;20169;-64
2023/09/21 06:19:28;;;;;;;3.92;2.30;;;;;;;;;;5079571;28;20051;-64
2023/09/21 06:21:57;;;;;;;6.25;2.47;;;;;;;;;;5091039;28;20044;-64
2023/09/21 06:24:25;;;;;;;3.40;2.13;;;;;;;;;;5089145;28;20044;-64
2023/09/21 06:26:53;;;;;;;5.03;2.25;;;;;;;;;;5092289;28;20154;-64
2023/09/21 06:29:22;;;;;;;6.90;2.53;;;;;;;;;;5087802;28;20053;-63
2023/09/21 06:31:52;;;;;;;3.95;2.28;;;;;;;;;;5087623;28;20063;-65
2023/09/21 06:34:22;;;;;;;4.05;2.30;;;;;;;;;;5087896;28;20074;-65
2023/09/21 06:36:50;;;;;;;3.50;2.15;;;;;;;;;;5084972;28;20105;-65
2023/09/21 06:39:18;;;;;;;4.20;2.42;;;;;;;;;;5080042;28;20055;-64
2023/09/21 06:41:47;;;;;;;5.18;2.10;;;;;;;;;;5083993;28;20499;-64
2023/09/21 06:44:14;;;;;;;4.40;2.08;;;;;;;;;;5067431;28;20536;-64
2023/09/21 06:46:42;;;;;;;7.93;2.50;;;;;;;;;;5082200;28;20052;-64
2023/09/21 06:49:10;;;;;;;12.48;2.45;;;;;;;;;;5083990;28;20051;-64
2023/09/21 06:51:37;;;;;;;6.70;2.67;;;;;;;;;;5085795;28;20130;-64
2023/09/21 06:54:05;;;;;;;8.98;2.40;;;;;;;;;;5084592;28;20055;-64
2023/09/21 06:56:33;;;;;;;8.73;1.00;;;;;;;;;;5085161;28;20048;-65
2023/09/21 06:59:00;;;;;;;1.92;0.70;;;;;;;;;;5082461;28;20414;-64
2023/09/21 07:01:27;;;;;;;1.35;0.70;;;;;;;;;;5078478;28;20063;-64
2023/09/21 07:03:54;;;;;;;0.98;0.32;;;;;;;;;;5075803;28;20048;-64
2023/09/21 07:06:22;;;;;;;1.42;0.60;;;;;;;;;;5087436;28;20045;-64
2023/09/21 07:08:50;;;;;;;2.50;0.50;;;;;;;;;;5089324;28;20052;-64
2023/09/21 07:11:19;;;;;;;2.40;0.68;;;;;;;;;;5085248;28;20489;-65
2023/09/21 07:13:47;;;;;;;5.82;0.70;;;;;;;;;;5078681;28;20048;-65
2023/09/21 07:16:14;;;;;;;1.15;0.47;;;;;;;;;;5079724;28;20128;-65
2023/09/21 07:18:42;;;;;;;1.92;0.60;;;;;;;;;;5081091;28;20047;-65
2023/09/21 07:21:10;;;;;;;2.03;0.77;;;;;;;;;;5083982;28;20148;-66
2023/09/21 07:23:37;;;;;;;4.85;0.80;;;;;;;;;;5071288;28;20054;-66
2023/09/21 07:26:05;;;;;;;2.85;0.70;;;;;;;;;;5083162;28;20055;-66
2023/09/21 07:28:33;;;;;;;1.23;0.50;;;;;;;;;;5086573;28;20074;-66
2023/09/21 07:31:02;;;;;;;19.85;1.33;;;;;;;;;;5080035;28;20063;-67
2023/09/21 07:33:30;;;;;;;2.25;0.60;;;;;;;;;;5084697;28;20048;-67
2023/09/21 07:35:58;;;;;;;1.48;0.50;;;;;;;;;;5085744;28;20495;-66
2023/09/21 07:38:26;;;;;;;1.00;0.30;;;;;;;;;;5062375;28;20056;-66
2023/09/21 07:40:54;;;;;;;4.20;0.75;;;;;;;;;;5083612;28;20143;-66
2023/09/21 07:43:21;;;;;;;3.00;0.47;;;;;;;;;;5086895;28;20051;-65
2023/09/21 07:45:50;;;;;;;4.43;0.50;;;;;;;;;;5084963;28;20582;-66
2023/09/21 07:48:20;;;;;;;1.85;0.55;;;;;;;;;;5080921;28;20052;-66
2023/09/21 07:50:49;;;;;;;1.38;0.55;;;;;;;;;;5085804;28;20048;-66
2023/09/21 07:53:17;;;;;;;3.25;0.50;;;;;;;;;;5081712;28;20559;-66
2023/09/21 07:55:44;;;;;;;1.23;0.52;;;;;;;;;;5076912;28;20097;-66
2023/09/21 07:58:12;;;;;;;5.65;0.60;;;;;;;;;;5085531;28;20501;-65
2023/09/21 08:00:39;;;;;;;2.25;0.50;;;;;;;;;;5078941;28;20411;-66
2023/09/21 08:03:08;;;;;;;1.30;0.63;;;;;;;;;;5076247;28;20074;-65
2023/09/21 08:05:36;;;;;;;2.15;0.50;;;;;;;;;;5080497;28;20074;-65
2023/09/21 08:08:05;;;;;;;9.63;0.75;;;;;;;;;;5084665;28;20480;-65
2023/09/21 08:10:33;;;;;;;3.92;0.70;;;;;;;;;;5088718;28;20040;-66
2023/09/21 08:13:01;;;;;;;5.20;0.85;;;;;;;;;;5080223;28;20054;-66
2023/09/21 08:15:28;;;;;;;7.78;0.80;;;;;;;;;;5086895;28;20463;-66
2023/09/21 08:17:55;;;;;;;10.55;1.13;;;;;;;;;;5086291;28;20375;-66
2023/09/21 08:20:24;;;;;;;1.60;0.82;;;;;;;;;;5087165;28;20048;-65
2023/09/21 08:22:51;;;;;;;2.30;0.73;;;;;;;;;;5066407;28;20504;-65
2023/09/21 08:25:18;;;;;;;2.55;0.88;;;;;;;;;;5084316;28;20075;-66
2023/09/21 08:27:46;;;;;;;3.28;0.80;;;;;;;;;;5091163;28;20048;-65
2023/09/21 08:30:15;;;;;;;1.85;0.70;;;;;;;;;;5086139;28;20098;-65
2023/09/21 08:32:43;;;;;;;2.53;1.02;;;;;;;;;;5089870;28;20464;-66
2023/09/21 08:35:11;;;;;;;10.25;1.17;;;;;;;;;;5082953;28;20044;-65
2023/09/21 08:37:39;;;;;;;2.13;0.73;;;;;;;;;;5072512;28;20044;-65
2023/09/21 08:40:07;;;;;;;8.18;0.73;;;;;;;;;;5086939;28;20052;-65
2023/09/21 08:42:37;;;;;;;5.22;0.73;;;;;;;;;;5089559;28;20052;-66
2023/09/21 08:45:07;;;;;;;10.88;1.23;;;;;;;;;;5084106;28;20475;-65
2023/09/21 08:47:35;;;;;;;1.08;0.55;;;;;;;;;;5088447;28;20056;-65
2023/09/21 08:50:03;;;;;;;7.05;1.00;;;;;;;;;;5089956;28;20048;-65
2023/09/21 08:52:33;;;;;;;7.75;0.93;;;;;;;;;;5084218;28;20106;-65
2023/09/21 08:55:02;;;;;;;3.45;1.10;;;;;;;;;;5080943;28;20427;-65
2023/09/21 08:57:30;;;;;;;6.40;1.23;;;;;;;;;;5089376;28;20062;-65
2023/09/21 09:00:06;;;;;;;3.47;1.05;;;;;;;;;;5089680;28;20127;-65
2023/09/21 09:02:35;;;;;;;4.85;1.10;;;;;;;;;;5092430;28;20077;-65
2023/09/21 09:05:04;;;;;;;7.18;1.00;;;;;;;;;;5097701;28;20043;-65
2023/09/21 09:07:33;;;;;;;1.30;0.52;;;;;;;;;;5100679;28;20518;-65
2023/09/21 09:10:01;;;;;;;10.27;1.10;;;;;;;;;;5093620;28;20052;-65
2023/09/21 09:12:28;;;;;;;2.28;0.90;;;;;;;;;;5091858;28;20370;-65
2023/09/21 09:14:57;;;;;;;4.45;1.10;;;;;;;;;;5088522;28;20048;-65
2023/09/21 09:17:29;;;;;;;1.92;0.75;;;;;;;;;;5099056;28;20524;-65
2023/09/21 09:19:57;;;;;;;2.85;0.90;;;;;;;;;;5090042;28;20037;-65
2023/09/21 09:22:25;;;;;;;2.55;0.90;;;;;;;;;;5077195;28;20155;-65
2023/09/21 09:24:53;;;;;;;2.97;0.80;;;;;;;;;;5077977;28;20075;-65
2023/09/21 09:27:21;;;;;;;2.63;0.80;;;;;;;;;;5093112;28;20048;-65
2023/09/21 09:29:49;;;;;;;4.18;0.90;;;;;;;;;;5099800;28;20047;-65
2023/09/21 09:32:18;;;;;;;5.20;0.80;;;;;;;;;;5086926;28;20080;-65
2023/09/21 09:34:46;;;;;;;3.95;0.80;;;;;;;;;;5103643;28;20079;-65
2023/09/21 09:37:15;;;;;;;5.03;1.15;;;;;;;;;;5092337;28;20125;-65
2023/09/21 09:39:42;;;;;;;2.38;0.80;;;;;;;;;;5096517;28;20065;-64
2023/09/21 09:42:11;;;;;;;4.07;0.73;;;;;;;;;;5077473;28;20052;-65
2023/09/21 09:44:47;;;;;;;1.75;0.77;;;;;;;;;;5095700;28;20055;-65
2023/09/21 09:47:17;;;;;;;2.20;0.80;;;;;;;;;;5086100;28;20075;-65
2023/09/21 09:49:47;;;;;;;4.00;0.77;;;;;;;;;;5088802;28;20075;-65
2023/09/21 09:52:18;;;;;;;2.00;0.70;;;;;;;;;;5091555;28;20499;-65
2023/09/21 09:54:47;;;;;;;1.20;0.82;;;;;;;;;;5091430;28;21742;-65
2023/09/21 09:57:15;;;;;;;4.00;0.90;;;;;;;;;;5092652;28;20244;-65
2023/09/21 09:59:45;;;;;;;5.85;0.95;;;;;;;;;;5089802;28;20045;-65
2023/09/21 10:02:13;;;;;;;3.88;0.90;;;;;;;;;;5092479;28;20132;-65
2023/09/21 10:04:41;;;;;;;6.00;1.00;;;;;;;;;;5087070;28;20066;-65
2023/09/21 10:07:08;;;;;;;5.15;1.00;;;;;;;;;;5083385;28;20059;-65
2023/09/21 10:09:37;;;;;;;2.83;1.00;;;;;;;;;;5077580;28;20052;-65
2023/09/21 10:12:05;;;;;;;2.35;0.90;;;;;;;;;;5091719;28;20509;-66
2023/09/21 10:14:35;;;;;;;4.65;0.93;;;;;;;;;;5089986;28;20048;-65
2023/09/21 10:17:05;;;;;;;2.65;0.80;;;;;;;;;;5084224;28;20059;-65
2023/09/21 10:19:38;;;;;;;3.92;0.85;;;;;;;;;;5078172;28;20052;-65
2023/09/21 10:22:20;;;;;;;2.17;0.90;;;;;;;;;;5090761;28;20048;-65
2023/09/21 10:24:51;;;;;;;5.18;0.85;;;;;;;;;;5089471;28;20093;-65
2023/09/21 10:27:23;;;;;;;3.92;0.90;;;;;;;;;;5090382;28;20059;-65
2023/09/21 10:29:54;;;;;;;3.13;0.90;;;;;;;;;;5091727;28;20040;-65
2023/09/21 10:32:24;;;;;;;2.45;0.85;;;;;;;;;;5086064;28;20071;-65
2023/09/21 10:34:52;;;;;;;1.63;0.85;;;;;;;;;;5091466;28;20396;-65
2023/09/21 10:37:26;;;;;;;1.13;0.60;;;;;;;;;;5086028;28;20048;-65
2023/09/21 10:39:58;;;;;;;5.40;0.90;;;;;;;;;;5080680;28;20592;-65
2023/09/21 10:42:36;;;;;;;1.88;0.80;;;;;;;;;;5079780;28;20471;-66
2023/09/21 10:45:09;;;;;;;1.35;0.98;;;;;;;;;;5086693;28;20048;-65
2023/09/21 10:47:47;;;;;;;1.45;0.90;;;;;;;;;;5089810;28;20048;-65
2023/09/21 10:50:16;;;;;;;1.35;0.85;;;;;;;;;;5079394;28;20141;-65
2023/09/21 10:52:44;;;;;;;2.20;0.90;;;;;;;;;;5089505;28;20044;-65
2023/09/21 10:55:13;;;;;;;1.90;0.98;;;;;;;;;;5089831;28;20134;-65
2023/09/21 10:57:41;;;;;;;2.50;0.75;;;;;;;;;;5088684;28;20127;-65
2023/09/21 11:00:15;;;;;;;2.90;0.80;;;;;;;;;;5089557;28;20514;-65
2023/09/21 11:02:44;;;;;;;1.98;0.70;;;;;;;;;;5082243;28;20044;-65
2023/09/21 11:05:16;;;;;;;4.78;0.95;;;;;;;;;;5073965;28;20530;-66
2023/09/21 11:07:44;;;;;;;2.08;0.80;;;;;;;;;;5089082;28;20054;-65
2023/09/21 11:10:11;;;;;;;2.20;0.85;;;;;;;;;;5090342;28;20043;-65
2023/09/21 11:12:40;;;;;;;2.35;0.80;;;;;;;;;;5091316;28;20134;-65
2023/09/21 11:15:09;;;;;;;2.25;0.80;;;;;;;;;;5085874;28;20418;-66
2023/09/21 11:17:36;;;;;;;2.88;1.20;;;;;;;;;;5088686;28;20091;-66
2023/09/21 11:20:04;;;;;;;3.05;0.82;;;;;;;;;;5081336;28;20044;-65
2023/09/21 11:22:33;;;;;;;4.47;1.10;;;;;;;;;;5091112;28;20051;-66
2023/09/21 11:25:06;;;;;;;4.03;0.90;;;;;;;;;;5083330;28;20464;-65
2023/09/21 11:27:34;;;;;;;2.55;0.95;;;;;;;;;;5088768;28;20090;-65
2023/09/21 11:30:02;;;;;;;5.10;0.95;;;;;;;;;;5090520;28;20091;-65
2023/09/21 11:32:29;;;;;;;2.88;1.20;;;;;;;;;;5089902;28;20111;-65
2023/09/21 11:35:00;;;;;;;1.25;0.70;;;;;;;;;;5090470;28;20052;-65
2023/09/21 11:37:28;;;;;;;1.95;0.70;;;;;;;;;;5084766;28;20055;-65
2023/09/21 11:39:57;;;;;;;3.08;0.82;;;;;;;;;;5076848;28;20049;-65
2023/09/21 11:42:25;;;;;;;1.83;0.68;;;;;;;;;;5088003;28;20040;-65
2023/09/21 11:44:53;;;;;;;2.42;0.73;;;;;;;;;;5085751;28;20048;-65
2023/09/21 11:47:22;;;;;;;0.70;0.60;;;;;;;;;;5090209;28;20075;-65
2023/09/21 11:49:53;;;;;;;2.45;1.13;;;;;;;;;;5087997;28;20054;-65
2023/09/21 11:52:24;;;;;;;2.08;1.00;;;;;;;;;;5084437;28;20173;-65
2023/09/21 11:54:52;;;;;;;2.17;0.70;;;;;;;;;;5086638;28;20384;-65
2023/09/21 11:57:21;;;;;;;1.17;0.75;;;;;;;;;;5089615;28;20052;-65
2023/09/21 11:59:49;;;;;;;2.00;0.95;;;;;;;;;;5087923;28;20131;-65
2023/09/21 12:02:17;;;;;;;3.63;1.05;;;;;;;;;;5086635;28;20071;-65
2023/09/21 12:04:45;;;;;;;3.00;1.10;;;;;;;;;;5086510;28;20044;-65
2023/09/21 12:07:14;;;;;;;1.98;1.13;;;;;;;;;;5089103;28;20051;-66
2023/09/21 12:09:41;;;;;;;2.33;1.23;;;;;;;;;;5093089;28;20510;-66
2023/09/21 12:12:09;;;;;;;2.83;1.13;;;;;;;;;;5085496;28;20047;-66
2023/09/21 12:14:40;;;;;;;2.25;1.20;;;;;;;;;;5088083;28;20135;-65
2023/09/21 12:17:11;;;;;;;4.70;1.42;;;;;;;;;;5067258;28;20048;-65
2023/09/21 12:19:39;;;;;;;1.67;1.10;;;;;;;;;;5086879;28;20098;-65
2023/09/21 12:22:06;;;;;;;3.58;1.10;;;;;;;;;;5089463;28;20484;-65
2023/09/21 12:24:34;;;;;;;2.92;1.10;;;;;;;;;;5089955;28;20496;-65
2023/09/21 12:27:03;;;;;;;3.25;1.23;;;;;;;;;;5088802;28;20052;-65
2023/09/21 12:29:30;;;;;;;2.17;0.95;;;;;;;;;;5088168;28;20052;-65
2023/09/21 12:31:59;;;;;;;2.85;1.10;;;;;;;;;;5068569;28;20105;-65
2023/09/21 12:34:27;;;;;;;2.85;1.23;;;;;;;;;;5086290;28;20475;-66
2023/09/21 12:36:54;;;;;;;1.45;0.90;;;;;;;;;;5085627;28;20083;-66
2023/09/21 12:39:24;;;;;;;1.10;0.80;;;;;;;;;;5088403;28;20048;-66
2023/09/21 12:41:51;;;;;;;2.38;1.02;;;;;;;;;;5080301;28;20055;-65
2023/09/21 12:44:19;;;;;;;1.30;0.93;;;;;;;;;;5075683;28;20178;-66
2023/09/21 12:46:46;;;;;;;2.97;0.90;;;;;;;;;;5064616;28;21300;-66
2023/09/21 12:49:16;;;;;;;1.98;0.85;;;;;;;;;;5085995;28;20048;-65
2023/09/21 12:51:44;;;;;;;2.58;0.85;;;;;;;;;;5082565;28;20044;-66
2023/09/21 12:54:12;;;;;;;2.05;0.70;;;;;;;;;;5087963;28;20055;-66
2023/09/21 12:56:39;;;;;;;1.58;0.73;;;;;;;;;;5083469;28;20085;-66
2023/09/21 12:59:07;;;;;;;3.60;0.98;;;;;;;;;;5084733;28;20072;-65
2023/09/21 13:01:34;;;;;;;0.88;0.68;;;;;;;;;;5082538;28;20056;-65
2023/09/21 13:04:02;;;;;;;1.73;0.80;;;;;;;;;;5076346;28;20052;-66
2023/09/21 13:06:31;;;;;;;1.65;0.77;;;;;;;;;;5070819;28;20080;-65
2023/09/21 13:08:58;;;;;;;1.65;0.80;;;;;;;;;;5087704;28;20090;-65
2023/09/21 13:11:26;;;;;;;2.42;0.70;;;;;;;;;;5079220;28;20120;-65
2023/09/21 13:13:53;;;;;;;2.67;0.80;;;;;;;;;;5088456;28;20418;-66
2023/09/21 13:16:20;;;;;;;4.68;0.90;;;;;;;;;;5074841;28;20048;-65
2023/09/21 13:18:47;;;;;;;3.40;0.80;;;;;;;;;;5083776;28;20077;-65
2023/09/21 13:21:16;;;;;;;2.35;0.82;;;;;;;;;;5088734;28;20402;-65
2023/09/21 13:23:44;;;;;;;1.40;0.77;;;;;;;;;;5084863;28;20492;-65
2023/09/21 13:26:12;;;;;;;1.45;1.08;;;;;;;;;;5091262;28;20050;-65
2023/09/21 13:28:40;;;;;;;2.90;0.80;;;;;;;;;;5090703;28;20133;-66
2023/09/21 13:31:09;;;;;;;1.23;0.80;;;;;;;;;;5092772;28;20419;-65
2023/09/21 13:33:37;;;;;;;2.50;0.82;;;;;;;;;;5080073;28;20048;-65
2023/09/21 13:36:05;;;;;;;0.98;0.70;;;;;;;;;;5089444;28;20515;-65
2023/09/21 13:38:32;;;;;;;1.27;0.60;;;;;;;;;;5088431;28;20051;-65
2023/09/21 13:41:00;;;;;;;0.52;0.52;;;;;;;;;;5092705;28;20044;-65
2023/09/21 13:43:28;;;;;;;1.52;0.75;;;;;;;;;;5081705;28;20048;-65
2023/09/21 13:45:55;;;;;;;0.73;0.60;;;;;;;;;;5091008;28;20141;-66
2023/09/21 13:48:22;;;;;;;1.80;0.50;;;;;;;;;;5085663;28;20059;-65
2023/09/21 13:50:51;;;;;;;1.02;0.57;;;;;;;;;;5090157;28;20108;-65
2023/09/21 13:53:18;;;;;;;1.45;0.55;;;;;;;;;;5089423;28;20051;-65
2023/09/21 13:55:46;;;;;;;4.75;0.85;;;;;;;;;;5090031;28;20048;-66
2023/09/21 13:58:15;;;;;;;1.73;0.75;;;;;;;;;;5086259;28;20090;-65
2023/09/21 14:00:42;;;;;;;1.48;0.77;;;;;;;;;;5086015;28;20052;-66
2023/09/21 14:03:10;;;;;;;1.08;0.70;;;;;;;;;;5090243;28;20611;-65
2023/09/21 14:05:39;;;;;;;1.30;0.60;;;;;;;;;;5083906;28;20048;-65
2023/09/21 14:08:09;;;;;;;2.90;0.90;;;;;;;;;;5084986;28;20088;-65
2023/09/21 14:10:36;;;;;;;1.00;0.60;;;;;;;;;;5077272;28;20130;-65
2023/09/21 14:13:04;;;;;;;1.48;0.57;;;;;;;;;;5086336;28;20498;-66
2023/09/21 14:15:32;;;;;;;0.90;0.52;;;;;;;;;;5090327;28;20040;-65
2023/09/21 14:17:59;;;;;;;0.60;0.50;;;;;;;;;;5086871;28;20052;-66
2023/09/21 14:20:27;;;;;;;3.85;0.63;;;;;;;;;;5092422;28;20552;-66
2023/09/21 14:22:54;;;;;;;1.15;0.60;;;;;;;;;;5087531;28;20052;-65
2023/09/21 14:25:21;;;;;;;3.95;0.50;;;;;;;;;;5087894;28;20067;-66
2023/09/21 14:27:48;;;;;;;0.60;0.35;;;;;;;;;;5090865;28;20523;-66
2023/09/21 14:30:16;;;;;;;1.13;0.55;;;;;;;;;;5083353;28;20126;-65
2023/09/21 14:32:46;;;;;;;1.90;0.50;;;;;;;;;;5088622;28;20071;-65
2023/09/21 14:35:15;;;;;;;1.48;0.60;;;;;;;;;;5088018;28;20392;-65
2023/09/21 14:37:42;;;;;;;4.80;0.68;;;;;;;;;;5089312;28;20417;-65
2023/09/21 14:40:10;;;;;;;1.17;0.68;;;;;;;;;;5085246;28;20052;-65
2023/09/21 14:42:37;;;;;;;1.27;0.70;;;;;;;;;;5082726;28;20076;-66
2023/09/21 14:45:04;;;;;;;1.63;0.60;;;;;;;;;;5083252;28;20044;-66
2023/09/21 14:47:33;;;;;;;1.17;0.65;;;;;;;;;;5089983;28;20071;-65
2023/09/21 14:50:04;;;;;;;3.03;0.65;;;;;;;;;;5088373;28;20044;-65